createdAt,value
2018-08-04T00:01:35.645Z,12.97
2018-08-04T00:04:05.460Z,12.60
2018-08-04T00:06:36.204Z,11.75
2018-08-04T00:09:09.833Z,11.78
2018-08-04T00:11:39.570Z,11.50
2018-08-04T00:14:09.247Z,12.15
2018-08-04T00:16:38.882Z,11.50
2018-08-04T00:19:08.979Z,11.50
2018-08-04T00:21:38.753Z,11.63
2018-08-04T00:24:08.393Z,11.60
2018-08-04T00:26:38.039Z,11.50
2018-08-04T00:29:07.728Z,12.70
2018-08-04T00:31:37.358Z,13.23
2018-08-04T00:34:06.975Z,11.10
2018-08-04T00:36:36.539Z,12.13
2018-08-04T00:39:07.694Z,11.73
2018-08-04T00:41:37.337Z,15.80
2018-08-04T00:44:06.965Z,13.47
2018-08-04T00:46:36.655Z,14.30
2018-08-04T00:49:06.284Z,12.23
2018-08-04T00:51:35.905Z,13.18
2018-08-04T00:54:05.521Z,11.10
2018-08-04T00:56:35.117Z,11.33
2018-08-04T00:59:04.758Z,12.37
2018-08-04T01:01:34.393Z,12.47
2018-08-04T01:04:04.107Z,11.22
2018-08-04T01:06:33.797Z,11.50
2018-08-04T01:09:03.573Z,11.68
2018-08-04T01:11:33.159Z,11.10
2018-08-04T01:14:02.738Z,12.30
2018-08-04T01:16:32.368Z,12.13
2018-08-04T01:19:01.986Z,12.13
2018-08-04T01:21:31.600Z,12.07
2018-08-04T01:24:01.200Z,12.13
2018-08-04T01:26:31.036Z,12.93
2018-08-04T01:29:00.649Z,14.03
2018-08-04T01:31:30.263Z,13.40
2018-08-04T01:33:59.833Z,12.13
2018-08-04T01:36:29.437Z,11.73
2018-08-04T01:38:59.122Z,11.53
2018-08-04T01:41:28.710Z,12.77
2018-08-04T01:44:04.048Z,11.13
2018-08-04T01:46:33.968Z,12.00
2018-08-04T01:49:03.657Z,12.40
2018-08-04T01:51:33.538Z,11.87
2018-08-04T01:54:04.267Z,12.07
2018-08-04T01:56:34.076Z,12.07
2018-08-04T01:59:03.803Z,14.23
2018-08-04T02:01:33.522Z,12.67
2018-08-04T02:04:03.164Z,12.10
2018-08-04T02:06:32.970Z,13.37
2018-08-04T02:09:02.726Z,12.60
2018-08-04T02:11:32.361Z,11.90
2018-08-04T02:14:01.975Z,12.03
2018-08-04T02:16:31.601Z,12.17
2018-08-04T02:19:01.315Z,11.73
2018-08-04T02:21:30.995Z,11.17
2018-08-04T02:24:00.690Z,12.47
2018-08-04T02:26:30.346Z,12.03
2018-08-04T02:29:00.021Z,12.40
2018-08-04T02:31:29.654Z,12.93
2018-08-04T02:33:59.304Z,12.27
2018-08-04T02:36:28.998Z,12.60
2018-08-04T02:38:58.680Z,11.13
2018-08-04T02:41:28.351Z,13.00
2018-08-04T02:43:57.913Z,10.17
2018-08-04T02:46:27.545Z,10.23
2018-08-04T02:48:57.174Z,10.13
2018-08-04T02:51:26.769Z,10.03
2018-08-04T02:53:56.408Z,10.80
2018-08-04T02:56:25.938Z,10.53
2018-08-04T02:58:55.634Z,11.60
2018-08-04T03:01:25.256Z,9.90
2018-08-04T03:03:54.808Z,10.17
2018-08-04T03:06:24.383Z,9.70
2018-08-04T03:08:54.094Z,14.17
2018-08-04T03:11:23.695Z,10.67
2018-08-04T03:13:53.293Z,9.50
2018-08-04T03:16:22.943Z,9.97
2018-08-04T03:18:51.924Z,10.07
2018-08-04T03:21:21.716Z,10.07
2018-08-04T03:23:51.246Z,11.77
2018-08-04T03:26:20.795Z,12.07
2018-08-04T03:28:50.405Z,9.20
2018-08-04T03:31:20.010Z,9.93
2018-08-04T03:33:49.586Z,11.30
2018-08-04T03:36:19.175Z,11.50
2018-08-04T03:38:48.744Z,9.47
2018-08-04T03:41:18.305Z,10.30
2018-08-04T03:43:48.047Z,9.70
2018-08-04T03:46:17.598Z,9.60
2018-08-04T03:48:47.252Z,11.63
2018-08-04T03:51:16.830Z,9.80
2018-08-04T03:53:46.420Z,10.33
2018-08-04T03:56:16.051Z,10.20
2018-08-04T03:58:45.730Z,11.77
2018-08-04T04:01:15.354Z,9.70
2018-08-04T04:03:44.955Z,9.57
2018-08-04T04:06:14.565Z,9.87
2018-08-04T04:08:44.116Z,9.27
2018-08-04T04:11:13.741Z,9.47
2018-08-04T04:13:43.285Z,9.37
2018-08-04T04:16:12.985Z,10.13
2018-08-04T04:18:42.609Z,9.43
2018-08-04T04:21:12.249Z,10.10
2018-08-04T04:23:41.805Z,11.50
2018-08-04T04:26:11.370Z,9.70
2018-08-04T04:28:41.056Z,12.20
2018-08-04T04:31:10.634Z,9.70
2018-08-04T04:33:40.200Z,12.00
2018-08-04T04:36:09.800Z,9.47
2018-08-04T04:38:39.391Z,13.33
2018-08-04T04:42:10.817Z,11.63
2018-08-04T04:44:40.431Z,12.17
2018-08-04T04:47:09.989Z,9.87
2018-08-04T04:49:39.636Z,9.83
2018-08-04T04:52:09.277Z,10.67
2018-08-04T04:54:38.915Z,11.47
2018-08-04T04:57:08.522Z,10.37
2018-08-04T04:59:38.070Z,10.70
2018-08-04T05:02:07.653Z,8.97
2018-08-04T05:04:37.289Z,29.87
2018-08-04T05:07:06.992Z,12.53
2018-08-04T05:09:36.544Z,9.83
2018-08-04T05:12:06.327Z,11.33
2018-08-04T05:14:35.971Z,12.10
2018-08-04T05:17:05.602Z,10.47
2018-08-04T05:19:35.265Z,9.60
2018-08-04T05:22:38.411Z,9.97
2018-08-04T05:25:08.470Z,9.33
2018-08-04T05:27:38.028Z,9.60
2018-08-04T05:30:08.271Z,8.70
2018-08-04T05:32:37.886Z,9.70
2018-08-04T05:35:07.504Z,9.58
2018-08-04T05:37:37.138Z,9.95
2018-08-04T05:40:07.386Z,10.47
2018-08-04T05:42:37.005Z,10.38
2018-08-04T05:45:07.865Z,10.20
2018-08-04T05:47:37.579Z,9.93
2018-08-04T05:50:07.933Z,13.40
2018-08-04T05:52:37.545Z,9.27
2018-08-04T05:55:07.377Z,9.73
2018-08-04T05:57:38.110Z,10.10
2018-08-04T06:00:09.234Z,10.25
2018-08-04T06:02:44.191Z,11.97
2018-08-04T06:05:13.773Z,10.00
2018-08-04T06:07:43.292Z,12.57
2018-08-04T06:10:18.254Z,9.93
2018-08-04T06:12:47.828Z,10.77
2018-08-04T06:15:18.346Z,10.07
2018-08-04T06:17:47.924Z,10.23
2018-08-04T06:20:17.487Z,11.50
2018-08-04T06:22:47.176Z,11.00
2018-08-04T06:25:16.769Z,9.90
2018-08-04T06:27:46.377Z,10.00
2018-08-04T06:30:16.069Z,9.45
2018-08-04T06:32:45.594Z,9.83
2018-08-04T06:35:15.225Z,9.83
2018-08-04T06:37:44.872Z,10.72
2018-08-04T06:40:14.453Z,10.55
2018-08-04T06:42:44.037Z,11.65
2018-08-04T06:45:13.655Z,9.60
2018-08-04T06:47:43.256Z,9.95
2018-08-04T06:50:12.822Z,9.70
2018-08-04T06:52:42.510Z,12.68
2018-08-04T06:55:12.115Z,10.15
2018-08-04T06:57:41.681Z,11.65
2018-08-04T07:00:11.432Z,10.18
2018-08-04T07:02:40.998Z,10.93
2018-08-04T07:06:07.537Z,10.63
2018-08-04T07:08:37.156Z,11.73
2018-08-04T07:11:06.851Z,10.98
2018-08-04T07:13:36.591Z,10.70
2018-08-04T07:16:06.263Z,10.38
2018-08-04T07:18:36.213Z,10.32
2018-08-04T07:21:07.868Z,11.22
2018-08-04T07:23:37.531Z,10.23
2018-08-04T07:29:29.364Z,10.45
2018-08-04T07:31:58.998Z,11.03
2018-08-04T07:34:28.579Z,9.88
2018-08-04T07:36:58.256Z,11.35
2018-08-04T07:39:27.888Z,11.38
2018-08-04T07:41:57.595Z,13.32
2018-08-04T07:44:27.158Z,11.08
2018-08-04T07:46:56.765Z,12.47
2018-08-04T07:49:26.371Z,11.18
2018-08-04T07:51:56.072Z,10.60
2018-08-04T07:54:25.720Z,12.85
2018-08-04T07:56:55.439Z,13.60
2018-08-04T07:59:25.118Z,10.50
2018-08-04T08:01:54.746Z,10.88
2018-08-04T08:04:24.330Z,14.00
2018-08-04T08:06:53.903Z,15.53
2018-08-04T08:09:23.527Z,12.13
2018-08-04T08:11:54.339Z,12.13
2018-08-04T08:14:26.501Z,12.58
2018-08-04T08:16:57.638Z,13.55
2018-08-04T08:19:29.159Z,12.80
2018-08-04T08:21:58.798Z,12.07
2018-08-04T08:24:28.523Z,12.47
2018-08-04T08:26:58.278Z,11.12
2018-08-04T08:29:31.851Z,13.35
2018-08-04T08:32:01.958Z,12.50
2018-08-04T08:34:32.172Z,12.90
2018-08-04T08:37:02.429Z,10.75
2018-08-04T08:39:32.570Z,10.70
2018-08-04T08:42:02.701Z,11.10
2018-08-04T08:44:32.973Z,12.05
2018-08-04T08:47:03.045Z,14.50
2018-08-04T08:49:33.055Z,14.23
2018-08-04T08:52:03.065Z,11.12
2018-08-04T08:54:33.148Z,12.95
2018-08-04T08:57:03.272Z,13.43
2018-08-04T08:59:33.392Z,12.93
2018-08-04T09:02:03.396Z,12.05
2018-08-04T09:04:33.565Z,12.05
2018-08-04T09:07:03.708Z,11.35
2018-08-04T09:09:33.778Z,12.37
2018-08-04T09:12:03.929Z,13.20
2018-08-04T09:14:34.082Z,12.55
2018-08-04T09:17:04.231Z,11.65
2018-08-04T09:19:34.223Z,14.70
2018-08-04T09:22:04.286Z,11.83
2018-08-04T09:24:34.343Z,12.90
2018-08-04T09:27:04.437Z,13.93
2018-08-04T09:29:34.162Z,11.63
2018-08-04T09:32:03.854Z,11.18
2018-08-04T09:34:33.592Z,11.68
2018-08-04T09:37:03.238Z,12.13
2018-08-04T09:39:32.875Z,10.93
2018-08-04T09:42:02.553Z,11.18
2018-08-04T09:44:32.302Z,10.80
2018-08-04T09:49:38.112Z,10.15
2018-08-04T09:52:08.044Z,9.70
2018-08-04T09:54:37.732Z,12.58
2018-08-04T09:57:09.662Z,11.40
2018-08-04T09:59:39.491Z,10.95
2018-08-04T10:02:11.022Z,9.38
2018-08-04T10:04:42.199Z,9.53
2018-08-04T10:07:13.790Z,9.55
2018-08-04T10:09:43.383Z,9.63
2018-08-04T10:12:13.172Z,9.85
2018-08-04T10:14:43.086Z,9.25
2018-08-04T10:17:12.848Z,9.25
2018-08-04T10:19:43.153Z,9.98
2018-08-04T10:22:14.956Z,9.40
2018-08-04T10:24:44.727Z,9.80
2018-08-04T10:27:14.456Z,9.65
2018-08-04T10:29:44.273Z,11.90
2018-08-04T10:32:14.045Z,10.48
2018-08-04T10:34:43.642Z,10.05
2018-08-04T10:37:12.647Z,9.95
2018-08-04T10:39:42.334Z,10.32
2018-08-04T10:42:12.044Z,9.38
2018-08-04T10:44:41.683Z,9.28
2018-08-04T10:47:11.246Z,9.08
2018-08-04T10:49:40.880Z,9.65
2018-08-04T10:52:10.737Z,10.32
2018-08-04T10:54:40.477Z,21.40
2018-08-04T10:57:10.183Z,9.93
2018-08-04T10:59:39.958Z,9.23
2018-08-04T11:02:09.866Z,10.60
2018-08-04T11:04:39.625Z,8.80
2018-08-04T11:07:09.303Z,8.98
2018-08-04T11:09:38.964Z,8.50
2018-08-04T11:12:08.681Z,9.43
2018-08-04T11:14:38.325Z,17.70
2018-08-04T11:17:08.116Z,11.28
2018-08-04T11:19:37.729Z,13.45
2018-08-04T11:22:07.420Z,11.88
2018-08-04T11:24:37.412Z,9.75
2018-08-04T11:27:07.156Z,9.83
2018-08-04T11:29:36.812Z,9.73
2018-08-04T11:32:06.491Z,11.33
2018-08-04T11:34:42.533Z,11.80
2018-08-04T11:37:14.731Z,10.20
2018-08-04T11:39:44.622Z,11.18
2018-08-04T11:42:14.607Z,8.98
2018-08-04T11:44:44.251Z,9.83
2018-08-04T11:47:20.796Z,9.63
2018-08-04T11:49:50.759Z,12.47
2018-08-04T11:52:20.519Z,10.55
2018-08-04T11:54:50.175Z,9.60
2018-08-04T11:57:19.954Z,10.05
2018-08-04T11:59:49.657Z,10.60
2018-08-04T12:02:19.322Z,9.25
2018-08-04T12:04:49.259Z,11.53
2018-08-04T12:07:19.053Z,10.03
2018-08-04T12:09:48.693Z,9.63
2018-08-04T12:12:18.509Z,9.60
2018-08-04T12:14:48.099Z,9.68
2018-08-04T12:17:17.734Z,13.05
2018-08-04T12:19:47.370Z,10.80
2018-08-04T12:22:17.115Z,10.03
2018-08-04T12:24:46.826Z,9.48
2018-08-04T12:27:16.556Z,9.93
2018-08-04T12:29:46.296Z,22.75
2018-08-04T12:32:16.016Z,9.23
2018-08-04T12:34:45.747Z,10.82
2018-08-04T12:37:15.481Z,9.95
2018-08-04T12:39:50.816Z,12.03
2018-08-04T12:42:27.375Z,17.82
2018-08-04T12:45:04.874Z,9.43
2018-08-04T12:47:34.710Z,9.20
2018-08-04T12:50:04.705Z,9.03
2018-08-04T12:52:34.421Z,8.30
2018-08-04T12:55:04.213Z,8.85
2018-08-04T12:57:34.083Z,8.65
2018-08-04T13:00:04.026Z,8.05
2018-08-04T13:02:33.905Z,9.18
2018-08-04T13:05:03.672Z,9.08
2018-08-04T13:07:33.404Z,8.83
2018-08-04T13:10:03.212Z,8.85
2018-08-04T13:12:32.988Z,7.92
2018-08-04T13:15:02.644Z,9.93
2018-08-04T13:17:32.556Z,8.80
2018-08-04T13:20:02.353Z,8.00
2018-08-04T13:22:32.108Z,10.00
2018-08-04T13:25:01.866Z,7.78
2018-08-04T13:27:31.809Z,7.37
2018-08-04T13:30:01.496Z,9.93
2018-08-04T13:32:31.137Z,8.80
2018-08-04T13:35:00.794Z,8.35
2018-08-04T13:37:30.506Z,11.15
2018-08-04T13:40:00.119Z,11.03
2018-08-04T13:42:29.796Z,8.63
2018-08-04T13:44:59.421Z,10.30
2018-08-04T13:47:29.194Z,7.67
2018-08-04T13:49:58.821Z,8.58
2018-08-04T13:52:28.425Z,7.40
2018-08-04T13:54:58.109Z,7.80
2018-08-04T13:57:27.695Z,8.28
2018-08-04T13:59:57.445Z,7.75
2018-08-04T14:02:27.106Z,8.05
2018-08-04T14:04:56.713Z,7.93
2018-08-04T14:07:26.301Z,13.93
2018-08-04T14:09:56.287Z,11.57
2018-08-04T14:12:26.016Z,8.80
2018-08-04T14:14:55.639Z,9.30
2018-08-04T14:17:25.303Z,7.67
2018-08-04T14:19:54.894Z,8.58
2018-08-04T14:22:24.519Z,8.55
2018-08-04T14:24:54.170Z,11.18
2018-08-04T14:27:23.773Z,9.58
2018-08-04T14:29:53.401Z,8.25
2018-08-04T14:32:23.081Z,7.70
2018-08-04T14:34:52.819Z,8.45
2018-08-04T14:37:22.388Z,7.85
2018-08-04T14:39:51.941Z,8.03
2018-08-04T14:42:21.580Z,7.97
2018-08-04T14:44:51.262Z,8.03
2018-08-04T14:47:20.860Z,7.33
2018-08-04T14:49:50.476Z,7.97
2018-08-04T14:52:20.175Z,15.08
2018-08-04T14:54:49.999Z,17.75
2018-08-04T14:57:19.707Z,8.60
2018-08-04T14:59:52.701Z,22.10
2018-08-04T15:02:22.406Z,11.50
2018-08-04T15:04:52.038Z,12.43
2018-08-04T15:07:21.737Z,25.40
2018-08-04T15:09:51.440Z,8.65
2018-08-04T15:12:21.160Z,9.55
2018-08-04T15:14:50.712Z,10.72
2018-08-04T15:17:20.491Z,8.30
2018-08-04T15:19:50.174Z,8.15
2018-08-04T15:22:19.770Z,8.33
2018-08-04T15:24:48.772Z,8.05
2018-08-04T15:27:18.416Z,15.38
2018-08-04T15:29:48.131Z,24.10
2018-08-04T15:32:17.751Z,9.78
2018-08-04T15:34:47.458Z,27.13
2018-08-04T15:37:17.044Z,8.38
2018-08-04T15:39:46.739Z,8.75
2018-08-04T15:42:16.336Z,19.40
2018-08-04T15:44:46.131Z,12.05
2018-08-04T15:47:15.746Z,9.98
2018-08-04T15:52:39.077Z,9.98
2018-08-04T15:55:08.904Z,11.20
2018-08-04T15:57:38.570Z,11.68
2018-08-04T16:00:09.380Z,13.93
2018-08-04T16:02:45.451Z,10.50
2018-08-04T16:05:15.174Z,13.22
2018-08-04T16:07:47.629Z,9.10
2018-08-04T16:10:17.605Z,11.48
2018-08-04T16:12:47.200Z,9.08
2018-08-04T16:15:16.774Z,11.10
2018-08-04T16:17:45.789Z,13.25
2018-08-04T16:20:16.833Z,9.25
2018-08-04T16:22:46.475Z,11.22
2018-08-04T16:25:16.373Z,10.05
2018-08-04T16:27:46.034Z,11.10
2018-08-04T16:30:15.700Z,10.13
2018-08-04T16:32:45.271Z,9.45
2018-08-04T16:35:14.836Z,9.08
2018-08-04T16:37:44.428Z,9.55
2018-08-04T16:40:14.068Z,11.75
2018-08-04T16:42:43.657Z,11.63
2018-08-04T16:45:13.289Z,9.95
2018-08-04T16:47:42.943Z,10.75
2018-08-04T16:50:12.520Z,10.75
2018-08-04T16:55:35.371Z,10.58
2018-08-04T16:58:05.110Z,10.25
2018-08-04T17:00:34.695Z,9.83
2018-08-04T17:03:04.886Z,10.55
2018-08-04T17:05:35.289Z,11.65
2018-08-04T17:08:05.118Z,9.90
2018-08-04T17:10:41.423Z,12.18
2018-08-04T17:13:11.134Z,10.35
2018-08-04T17:15:40.801Z,11.08
2018-08-04T17:18:10.583Z,10.38
2018-08-04T17:20:40.324Z,12.82
2018-08-04T17:23:10.671Z,10.70
2018-08-04T17:25:40.235Z,13.28
2018-08-04T17:28:09.940Z,14.03
2018-08-04T17:30:39.636Z,12.40
2018-08-04T17:33:09.215Z,14.18
2018-08-04T17:35:38.841Z,10.50
2018-08-04T17:38:08.478Z,12.80
2018-08-04T17:40:38.233Z,11.25
2018-08-04T17:43:07.953Z,14.73
2018-08-04T17:45:37.757Z,15.75
2018-08-04T17:48:07.413Z,14.25
2018-08-04T17:50:36.987Z,13.68
2018-08-04T17:53:06.732Z,16.45
2018-08-04T17:55:36.276Z,16.40
2018-08-04T17:58:06.078Z,16.60
2018-08-04T18:00:35.684Z,13.22
2018-08-04T18:03:05.331Z,16.57
2018-08-04T18:05:35.045Z,13.20
2018-08-04T18:08:04.694Z,15.43
2018-08-04T18:10:34.330Z,15.08
2018-08-04T18:13:04.139Z,15.25
2018-08-04T18:15:33.743Z,16.42
2018-08-04T18:18:03.364Z,20.57
2018-08-04T18:20:33.047Z,14.18
2018-08-04T18:23:03.263Z,19.87
2018-08-04T18:25:32.934Z,15.40
2018-08-04T18:28:02.577Z,16.52
2018-08-04T18:30:32.266Z,15.18
2018-08-04T18:33:01.951Z,21.87
2018-08-04T18:35:31.557Z,17.10
2018-08-04T18:38:01.303Z,15.08
2018-08-04T18:40:30.320Z,15.70
2018-08-04T18:42:59.948Z,25.55
2018-08-04T18:45:29.681Z,21.25
2018-08-04T18:47:59.432Z,16.62
2018-08-04T18:50:31.971Z,28.25
2018-08-04T18:53:01.850Z,18.23
2018-08-04T18:55:31.521Z,27.98
2018-08-04T18:58:01.486Z,29.15
2018-08-04T19:00:31.234Z,30.10
2018-08-04T19:03:01.683Z,29.10
2018-08-04T19:05:31.709Z,28.73
2018-08-04T19:08:01.374Z,30.77
2018-08-04T19:10:30.985Z,33.95
2018-08-04T19:13:00.643Z,29.75
2018-08-04T19:15:30.508Z,21.97
2018-08-04T19:18:00.155Z,21.70
2018-08-04T19:20:30.145Z,21.57
2018-08-04T19:23:00.208Z,19.05
2018-08-04T19:25:29.967Z,20.97
2018-08-04T19:27:59.815Z,29.07
2018-08-04T19:30:29.472Z,15.10
2018-08-04T19:33:01.751Z,17.87
2018-08-04T19:35:32.039Z,15.05
2018-08-04T19:38:02.317Z,16.95
2018-08-04T19:40:32.594Z,18.80
2018-08-04T19:43:02.522Z,17.48
2018-08-04T19:45:32.499Z,16.52
2018-08-04T19:48:02.695Z,18.52
2018-08-04T19:50:32.622Z,19.52
2018-08-04T19:53:02.614Z,18.30
2018-08-04T19:55:35.027Z,18.67
2018-08-04T19:58:04.893Z,15.75
2018-08-04T20:00:34.848Z,14.50
2018-08-04T20:03:04.890Z,14.18
2018-08-04T20:05:35.945Z,18.45
2018-08-04T20:08:05.633Z,23.75
2018-08-04T20:10:35.735Z,19.90
2018-08-04T20:13:05.460Z,19.45
2018-08-04T20:15:35.523Z,18.02
2018-08-04T20:18:05.433Z,17.45
2018-08-04T20:20:35.224Z,16.77
2018-08-04T20:23:05.041Z,13.05
2018-08-04T20:25:35.279Z,14.87
2018-08-04T20:28:05.339Z,13.40
2018-08-04T20:30:35.467Z,15.65
2018-08-04T20:33:05.787Z,14.28
2018-08-04T20:35:36.411Z,12.75
2018-08-04T20:38:06.436Z,14.47
2018-08-04T20:40:38.587Z,12.18
2018-08-04T20:43:09.191Z,12.37
2018-08-04T20:45:39.485Z,13.10
2018-08-04T20:48:09.991Z,13.78
2018-08-04T20:50:44.359Z,12.30
2018-08-04T20:53:14.570Z,13.70
2018-08-04T20:55:44.442Z,12.95
2018-08-04T20:58:14.230Z,11.63
2018-08-04T21:00:48.709Z,12.23
2018-08-04T21:03:18.991Z,14.13
2018-08-04T21:05:49.073Z,12.23
2018-08-04T21:08:18.885Z,12.63
2018-08-04T21:10:50.582Z,11.63
2018-08-04T21:13:20.103Z,13.32
2018-08-04T21:15:50.255Z,18.52
2018-08-04T21:18:20.170Z,13.50
2018-08-04T21:20:50.208Z,15.15
2018-08-04T21:23:20.076Z,13.98
2018-08-04T21:25:50.161Z,18.85
2018-08-04T21:28:20.122Z,12.20
2018-08-04T21:30:50.381Z,12.07
2018-08-04T21:33:20.229Z,11.20
2018-08-04T21:35:50.069Z,16.67
2018-08-04T21:38:19.749Z,13.83
2018-08-04T21:40:49.486Z,14.80
2018-08-04T21:43:19.368Z,12.07
2018-08-04T21:45:49.763Z,11.48
2018-08-04T21:48:19.860Z,11.05
2018-08-04T21:50:49.640Z,11.75
2018-08-04T21:53:19.270Z,12.28
2018-08-04T21:55:49.730Z,13.45
2018-08-04T21:58:21.653Z,12.03
2018-08-04T22:00:58.385Z,12.75
2018-08-04T22:03:28.604Z,16.60
2018-08-04T22:05:58.320Z,12.33
2018-08-04T22:08:38.685Z,12.63
2018-08-04T22:11:08.509Z,11.00
2018-08-04T22:13:38.239Z,11.22
2018-08-04T22:16:07.866Z,12.33
2018-08-04T22:18:37.509Z,12.05
2018-08-04T22:21:07.318Z,11.70
2018-08-04T22:23:37.367Z,12.40
2018-08-04T22:26:07.368Z,11.68
2018-08-04T22:28:37.720Z,11.97
2018-08-04T22:31:07.683Z,13.32
2018-08-04T22:33:36.878Z,10.72
2018-08-04T22:36:06.618Z,11.05
2018-08-04T22:38:36.625Z,10.88
2018-08-04T22:41:06.341Z,11.10
2018-08-04T22:43:36.023Z,11.93
2018-08-04T22:46:10.195Z,12.55
2018-08-04T22:48:40.002Z,10.93
2018-08-04T22:51:09.814Z,11.18
2018-08-04T22:53:39.703Z,12.13
2018-08-04T22:56:09.266Z,11.38
2018-08-04T22:58:39.574Z,14.03
2018-08-04T23:01:09.253Z,11.33
2018-08-04T23:03:39.066Z,11.45
2018-08-04T23:06:09.281Z,11.30
2018-08-04T23:08:39.393Z,13.05
2018-08-04T23:11:09.055Z,13.00
2018-08-04T23:13:38.762Z,11.85
2018-08-04T23:16:08.425Z,12.95
2018-08-04T23:18:38.054Z,10.95
2018-08-04T23:21:07.802Z,11.15
2018-08-04T23:23:37.401Z,10.93
2018-08-04T23:26:07.200Z,10.55
2018-08-04T23:28:36.830Z,11.18
2018-08-04T23:31:06.418Z,10.63
2018-08-04T23:33:36.057Z,10.98
2018-08-04T23:36:05.667Z,12.35
2018-08-04T23:38:35.311Z,12.88
2018-08-04T23:41:04.940Z,13.93
2018-08-04T23:43:34.685Z,12.00
2018-08-04T23:46:04.487Z,12.28
2018-08-04T23:48:34.219Z,15.00
2018-08-04T23:51:03.908Z,13.95
2018-08-04T23:53:33.586Z,14.68
2018-08-04T23:56:03.175Z,12.35
2018-08-04T23:58:32.802Z,13.32
